sensor_id;sensor_type;location;lat;lon;timestamp;temperature;humidity
9043;DHT22;4556;49.150;8.808;2022-11-28T00:00:08;4.20;99.90
9043;DHT22;4556;49.150;8.808;2022-11-28T00:02:35;4.20;99.90
9043;DHT22;4556;49.150;8.808;2022-11-28T00:05:02;5.30;99.90
9043;DHT22;4556;49.150;8.808;2022-11-28T00:07:29;4.10;99.90
9043;DHT22;4556;49.150;8.808;2022-11-28T00:09:56;4.50;99.90
9043;DHT22;4556;49.150;8.808;2022-11-28T00:12:23;4.20;99.90
9043;DHT22;4556;49.150;8.808;2022-11-28T00:14:50;4.40;99.90
9043;DHT22;4556;49.150;8.808;2022-11-28T00:17:19;4.10;99.90
9043;DHT22;4556;49.150;8.808;2022-11-28T00:19:46;6.20;99.90
9043;DHT22;4556;49.150;8.808;2022-11-28T00:22:13;3.90;99.90
9043;DHT22;4556;49.150;8.808;2022-11-28T00:24:40;7.10;99.90
9043;DHT22;4556;49.150;8.808;2022-11-28T00:27:06;4.00;99.90
9043;DHT22;4556;49.150;8.808;2022-11-28T00:29:33;4.00;99.90
9043;DHT22;4556;49.150;8.808;2022-11-28T00:32:00;6.70;99.90
9043;DHT22;4556;49.150;8.808;2022-11-28T00:34:29;3.90;99.90
9043;DHT22;4556;49.150;8.808;2022-11-28T00:36:56;6.60;99.90
9043;DHT22;4556;49.150;8.808;2022-11-28T00:39:23;3.90;99.90
9043;DHT22;4556;49.150;8.808;2022-11-28T00:41:50;5.20;99.90
9043;DHT22;4556;49.150;8.808;2022-11-28T00:44:17;3.80;99.90
9043;DHT22;4556;49.150;8.808;2022-11-28T00:46:43;5.60;99.90
9043;DHT22;4556;49.150;8.808;2022-11-28T00:49:11;7.00;99.90
9043;DHT22;4556;49.150;8.808;2022-11-28T00:51:40;3.80;99.90
9043;DHT22;4556;49.150;8.808;2022-11-28T00:54:06;3.80;99.90
9043;DHT22;4556;49.150;8.808;2022-11-28T00:56:37;3.70;99.90
9043;DHT22;4556;49.150;8.808;2022-11-28T00:59:05;3.80;99.90
9043;DHT22;4556;49.150;8.808;2022-11-28T01:01:34;3.80;99.90
9043;DHT22;4556;49.150;8.808;2022-11-28T01:04:03;3.80;99.90
9043;DHT22;4556;49.150;8.808;2022-11-28T01:06:32;3.70;99.90
9043;DHT22;4556;49.150;8.808;2022-11-28T01:09:06;6.00;99.90
9043;DHT22;4556;49.150;8.808;2022-11-28T01:11:34;3.70;99.90
9043;DHT22;4556;49.150;8.808;2022-11-28T01:14:01;3.70;99.90
9043;DHT22;4556;49.150;8.808;2022-11-28T01:16:28;3.60;99.90
9043;DHT22;4556;49.150;8.808;2022-11-28T01:18:57;3.50;99.90
9043;DHT22;4556;49.150;8.808;2022-11-28T01:21:24;3.40;99.90
9043;DHT22;4556;49.150;8.808;2022-11-28T01:23:51;3.60;99.90
9043;DHT22;4556;49.150;8.808;2022-11-28T01:26:22;3.60;99.90
9043;DHT22;4556;49.150;8.808;2022-11-28T01:28:49;3.50;99.90
9043;DHT22;4556;49.150;8.808;2022-11-28T01:31:18;3.50;99.90
9043;DHT22;4556;49.150;8.808;2022-11-28T01:33:45;5.10;99.90
9043;DHT22;4556;49.150;8.808;2022-11-28T01:36:13;3.50;99.90
9043;DHT22;4556;49.150;8.808;2022-11-28T01:38:41;3.60;99.90
9043;DHT22;4556;49.150;8.808;2022-11-28T01:41:10;3.60;99.90
9043;DHT22;4556;49.150;8.808;2022-11-28T01:43:57;3.70;99.90
9043;DHT22;4556;49.150;8.808;2022-11-28T01:46:24;3.60;99.90
9043;DHT22;4556;49.150;8.808;2022-11-28T01:48:55;3.90;99.90
9043;DHT22;4556;49.150;8.808;2022-11-28T01:51:22;3.50;99.90
9043;DHT22;4556;49.150;8.808;2022-11-28T01:53:49;3.60;99.90
9043;DHT22;4556;49.150;8.808;2022-11-28T01:56:20;3.50;99.90
9043;DHT22;4556;49.150;8.808;2022-11-28T01:58:52;3.50;99.90
9043;DHT22;4556;49.150;8.808;2022-11-28T02:01:23;4.20;99.90
9043;DHT22;4556;49.150;8.808;2022-11-28T02:03:51;3.50;99.90
9043;DHT22;4556;49.150;8.808;2022-11-28T02:06:22;5.90;99.90
9043;DHT22;4556;49.150;8.808;2022-11-28T02:08:50;3.60;99.90
9043;DHT22;4556;49.150;8.808;2022-11-28T02:11:38;3.50;99.90
9043;DHT22;4556;49.150;8.808;2022-11-28T02:14:14;3.60;99.90
9043;DHT22;4556;49.150;8.808;2022-11-28T02:16:53;5.70;99.90
9043;DHT22;4556;49.150;8.808;2022-11-28T02:19:55;3.60;99.90
9043;DHT22;4556;49.150;8.808;2022-11-28T02:22:34;3.60;99.90
9043;DHT22;4556;49.150;8.808;2022-11-28T02:25:34;3.60;99.90
9043;DHT22;4556;49.150;8.808;2022-11-28T02:31:17;3.70;99.90
9043;DHT22;4556;49.150;8.808;2022-11-28T02:33:52;3.60;99.90
9043;DHT22;4556;49.150;8.808;2022-11-28T02:36:26;6.80;99.90
9043;DHT22;4556;49.150;8.808;2022-11-28T02:39:00;3.60;99.90
9043;DHT22;4556;49.150;8.808;2022-11-28T02:41:33;3.60;99.90
9043;DHT22;4556;49.150;8.808;2022-11-28T02:44:07;3.60;99.90
9043;DHT22;4556;49.150;8.808;2022-11-28T02:46:41;4.20;99.90
9043;DHT22;4556;49.150;8.808;2022-11-28T02:49:14;3.40;99.90
9043;DHT22;4556;49.150;8.808;2022-11-28T02:51:47;6.40;99.90
9043;DHT22;4556;49.150;8.808;2022-11-28T02:54:17;3.70;99.90
9043;DHT22;4556;49.150;8.808;2022-11-28T02:56:46;3.70;99.90
9043;DHT22;4556;49.150;8.808;2022-11-28T02:59:30;3.80;99.90
9043;DHT22;4556;49.150;8.808;2022-11-28T03:01:58;3.60;99.90
9043;DHT22;4556;49.150;8.808;2022-11-28T03:04:33;3.70;99.90
9043;DHT22;4556;49.150;8.808;2022-11-28T03:07:06;5.60;99.90
9043;DHT22;4556;49.150;8.808;2022-11-28T03:09:55;3.60;99.90
9043;DHT22;4556;49.150;8.808;2022-11-28T03:12:33;3.60;99.90
9043;DHT22;4556;49.150;8.808;2022-11-28T03:15:08;3.60;99.90
9043;DHT22;4556;49.150;8.808;2022-11-28T03:17:44;5.60;99.90
9043;DHT22;4556;49.150;8.808;2022-11-28T03:20:27;5.80;99.90
9043;DHT22;4556;49.150;8.808;2022-11-28T03:23:10;3.50;99.90
9043;DHT22;4556;49.150;8.808;2022-11-28T03:25:48;3.60;99.90
9043;DHT22;4556;49.150;8.808;2022-11-28T03:28:21;3.50;99.90
9043;DHT22;4556;49.150;8.808;2022-11-28T03:30:53;6.10;99.90
9043;DHT22;4556;49.150;8.808;2022-11-28T03:33:23;5.90;99.90
9043;DHT22;4556;49.150;8.808;2022-11-28T03:35:57;6.20;99.90
9043;DHT22;4556;49.150;8.808;2022-11-28T03:38:30;4.00;99.90
9043;DHT22;4556;49.150;8.808;2022-11-28T03:41:02;6.20;99.90
9043;DHT22;4556;49.150;8.808;2022-11-28T03:43:35;3.40;99.90
9043;DHT22;4556;49.150;8.808;2022-11-28T03:46:06;3.60;99.90
9043;DHT22;4556;49.150;8.808;2022-11-28T03:48:39;3.40;99.90
9043;DHT22;4556;49.150;8.808;2022-11-28T03:51:11;3.40;99.90
9043;DHT22;4556;49.150;8.808;2022-11-28T03:53:46;3.40;99.90
9043;DHT22;4556;49.150;8.808;2022-11-28T03:56:16;3.40;99.90
9043;DHT22;4556;49.150;8.808;2022-11-28T03:58:50;3.50;99.90
9043;DHT22;4556;49.150;8.808;2022-11-28T04:01:29;3.40;99.90
9043;DHT22;4556;49.150;8.808;2022-11-28T04:04:05;3.40;99.90
9043;DHT22;4556;49.150;8.808;2022-11-28T04:06:41;4.00;99.90
9043;DHT22;4556;49.150;8.808;2022-11-28T04:09:13;3.40;99.90
9043;DHT22;4556;49.150;8.808;2022-11-28T04:11:46;3.50;99.90
9043;DHT22;4556;49.150;8.808;2022-11-28T04:14:20;3.50;99.90
9043;DHT22;4556;49.150;8.808;2022-11-28T04:16:53;3.40;99.90
9043;DHT22;4556;49.150;8.808;2022-11-28T04:19:26;4.30;99.90
9043;DHT22;4556;49.150;8.808;2022-11-28T04:21:59;3.50;99.90
9043;DHT22;4556;49.150;8.808;2022-11-28T04:24:32;3.40;99.90
9043;DHT22;4556;49.150;8.808;2022-11-28T04:27:03;5.60;99.90
9043;DHT22;4556;49.150;8.808;2022-11-28T04:29:33;3.30;99.90
9043;DHT22;4556;49.150;8.808;2022-11-28T04:32:03;3.40;99.90
9043;DHT22;4556;49.150;8.808;2022-11-28T04:34:31;3.30;99.90
9043;DHT22;4556;49.150;8.808;2022-11-28T04:37:03;3.30;99.90
9043;DHT22;4556;49.150;8.808;2022-11-28T04:39:33;3.40;99.90
9043;DHT22;4556;49.150;8.808;2022-11-28T04:42:05;3.50;99.90
9043;DHT22;4556;49.150;8.808;2022-11-28T04:44:36;3.50;99.90
9043;DHT22;4556;49.150;8.808;2022-11-28T04:47:04;3.40;99.90
9043;DHT22;4556;49.150;8.808;2022-11-28T04:49:31;3.30;99.90
9043;DHT22;4556;49.150;8.808;2022-11-28T04:52:05;3.20;99.90
9043;DHT22;4556;49.150;8.808;2022-11-28T04:54:39;3.80;99.90
9043;DHT22;4556;49.150;8.808;2022-11-28T04:57:12;3.30;99.90
9043;DHT22;4556;49.150;8.808;2022-11-28T04:59:41;3.30;99.90
9043;DHT22;4556;49.150;8.808;2022-11-28T05:02:09;3.30;99.90
9043;DHT22;4556;49.150;8.808;2022-11-28T05:04:36;3.20;99.90
9043;DHT22;4556;49.150;8.808;2022-11-28T05:07:06;3.20;99.90
9043;DHT22;4556;49.150;8.808;2022-11-28T05:09:35;3.30;99.90
9043;DHT22;4556;49.150;8.808;2022-11-28T05:12:03;5.60;99.90
9043;DHT22;4556;49.150;8.808;2022-11-28T05:14:30;3.10;99.90
9043;DHT22;4556;49.150;8.808;2022-11-28T05:16:57;3.10;99.90
9043;DHT22;4556;49.150;8.808;2022-11-28T05:19:24;3.20;99.90
9043;DHT22;4556;49.150;8.808;2022-11-28T05:21:51;3.10;99.90
9043;DHT22;4556;49.150;8.808;2022-11-28T05:24:20;6.20;99.90
9043;DHT22;4556;49.150;8.808;2022-11-28T05:26:47;4.90;99.90
9043;DHT22;4556;49.150;8.808;2022-11-28T05:29:15;3.10;99.90
9043;DHT22;4556;49.150;8.808;2022-11-28T05:31:42;3.20;99.90
9043;DHT22;4556;49.150;8.808;2022-11-28T05:34:09;5.20;99.90
9043;DHT22;4556;49.150;8.808;2022-11-28T05:36:36;3.20;99.90
9043;DHT22;4556;49.150;8.808;2022-11-28T05:39:03;3.20;99.90
9043;DHT22;4556;49.150;8.808;2022-11-28T05:41:32;3.20;99.90
9043;DHT22;4556;49.150;8.808;2022-11-28T05:43:59;3.20;99.90
9043;DHT22;4556;49.150;8.808;2022-11-28T05:46:27;3.20;99.90
9043;DHT22;4556;49.150;8.808;2022-11-28T05:48:57;3.20;99.90
9043;DHT22;4556;49.150;8.808;2022-11-28T05:51:24;4.60;99.90
9043;DHT22;4556;49.150;8.808;2022-11-28T05:53:51;4.90;99.90
9043;DHT22;4556;49.150;8.808;2022-11-28T05:56:19;3.10;99.90
9043;DHT22;4556;49.150;8.808;2022-11-28T05:58:49;3.20;99.90
9043;DHT22;4556;49.150;8.808;2022-11-28T06:01:19;3.20;99.90
9043;DHT22;4556;49.150;8.808;2022-11-28T06:03:47;3.10;99.90
9043;DHT22;4556;49.150;8.808;2022-11-28T06:06:15;3.00;99.90
9043;DHT22;4556;49.150;8.808;2022-11-28T06:08:43;3.20;99.90
9043;DHT22;4556;49.150;8.808;2022-11-28T06:11:10;4.50;99.90
9043;DHT22;4556;49.150;8.808;2022-11-28T06:13:39;3.00;99.90
9043;DHT22;4556;49.150;8.808;2022-11-28T06:16:09;3.00;99.90
9043;DHT22;4556;49.150;8.808;2022-11-28T06:18:36;3.00;99.90
9043;DHT22;4556;49.150;8.808;2022-11-28T06:21:04;3.20;99.90
9043;DHT22;4556;49.150;8.808;2022-11-28T06:23:31;3.20;99.90
9043;DHT22;4556;49.150;8.808;2022-11-28T06:26:03;4.90;99.90
9043;DHT22;4556;49.150;8.808;2022-11-28T06:28:30;5.10;99.90
9043;DHT22;4556;49.150;8.808;2022-11-28T06:30:57;3.00;99.90
9043;DHT22;4556;49.150;8.808;2022-11-28T06:33:26;4.20;99.90
9043;DHT22;4556;49.150;8.808;2022-11-28T06:35:58;3.20;99.90
9043;DHT22;4556;49.150;8.808;2022-11-28T06:38:26;3.10;99.90
9043;DHT22;4556;49.150;8.808;2022-11-28T06:40:55;3.10;99.90
9043;DHT22;4556;49.150;8.808;2022-11-28T06:43:22;4.40;99.90
9043;DHT22;4556;49.150;8.808;2022-11-28T06:45:50;4.60;99.90
9043;DHT22;4556;49.150;8.808;2022-11-28T06:48:16;3.30;99.90
9043;DHT22;4556;49.150;8.808;2022-11-28T06:50:45;3.30;99.90
9043;DHT22;4556;49.150;8.808;2022-11-28T06:53:12;3.30;99.90
9043;DHT22;4556;49.150;8.808;2022-11-28T06:55:39;3.30;99.90
9043;DHT22;4556;49.150;8.808;2022-11-28T06:58:07;3.20;99.90
9043;DHT22;4556;49.150;8.808;2022-11-28T07:00:34;4.50;99.90
9043;DHT22;4556;49.150;8.808;2022-11-28T07:03:01;5.10;99.90
9043;DHT22;4556;49.150;8.808;2022-11-28T07:05:28;3.10;99.90
9043;DHT22;4556;49.150;8.808;2022-11-28T07:07:57;3.10;99.90
9043;DHT22;4556;49.150;8.808;2022-11-28T07:10:24;3.10;99.90
9043;DHT22;4556;49.150;8.808;2022-11-28T07:12:53;3.70;99.90
9043;DHT22;4556;49.150;8.808;2022-11-28T07:15:20;3.20;99.90
9043;DHT22;4556;49.150;8.808;2022-11-28T07:17:47;3.30;99.90
9043;DHT22;4556;49.150;8.808;2022-11-28T07:20:14;4.80;99.90
9043;DHT22;4556;49.150;8.808;2022-11-28T07:22:41;3.20;99.90
9043;DHT22;4556;49.150;8.808;2022-11-28T07:25:10;4.10;99.90
9043;DHT22;4556;49.150;8.808;2022-11-28T07:27:37;3.20;99.90
9043;DHT22;4556;49.150;8.808;2022-11-28T07:30:05;3.10;99.90
9043;DHT22;4556;49.150;8.808;2022-11-28T07:32:32;3.10;99.90
9043;DHT22;4556;49.150;8.808;2022-11-28T07:34:59;3.20;99.90
9043;DHT22;4556;49.150;8.808;2022-11-28T07:37:26;3.20;99.90
9043;DHT22;4556;49.150;8.808;2022-11-28T07:39:54;5.30;99.90
9043;DHT22;4556;49.150;8.808;2022-11-28T07:42:22;3.30;99.90
9043;DHT22;4556;49.150;8.808;2022-11-28T07:44:49;3.30;99.90
9043;DHT22;4556;49.150;8.808;2022-11-28T07:47:16;3.40;99.90
9043;DHT22;4556;49.150;8.808;2022-11-28T07:49:44;3.40;99.90
9043;DHT22;4556;49.150;8.808;2022-11-28T07:52:11;3.30;99.90
9043;DHT22;4556;49.150;8.808;2022-11-28T07:54:38;3.20;99.90
9043;DHT22;4556;49.150;8.808;2022-11-28T07:57:05;3.30;99.90
9043;DHT22;4556;49.150;8.808;2022-11-28T07:59:34;3.20;99.90
9043;DHT22;4556;49.150;8.808;2022-11-28T08:02:01;3.20;99.90
9043;DHT22;4556;49.150;8.808;2022-11-28T08:04:28;3.20;99.90
9043;DHT22;4556;49.150;8.808;2022-11-28T08:06:55;3.20;99.90
9043;DHT22;4556;49.150;8.808;2022-11-28T08:09:22;4.40;99.90
9043;DHT22;4556;49.150;8.808;2022-11-28T08:11:49;4.40;99.90
9043;DHT22;4556;49.150;8.808;2022-11-28T08:14:17;3.40;99.90
9043;DHT22;4556;49.150;8.808;2022-11-28T08:16:45;5.60;99.90
9043;DHT22;4556;49.150;8.808;2022-11-28T08:19:14;4.10;99.90
9043;DHT22;4556;49.150;8.808;2022-11-28T08:21:40;3.80;99.90
9043;DHT22;4556;49.150;8.808;2022-11-28T08:24:09;3.50;99.90
9043;DHT22;4556;49.150;8.808;2022-11-28T08:26:37;3.50;99.90
9043;DHT22;4556;49.150;8.808;2022-11-28T08:29:04;3.50;99.90
9043;DHT22;4556;49.150;8.808;2022-11-28T08:31:32;3.50;99.90
9043;DHT22;4556;49.150;8.808;2022-11-28T08:34:05;3.60;99.90
9043;DHT22;4556;49.150;8.808;2022-11-28T08:36:32;3.60;99.90
9043;DHT22;4556;49.150;8.808;2022-11-28T08:39:04;3.70;99.90
9043;DHT22;4556;49.150;8.808;2022-11-28T08:41:31;4.70;99.90
9043;DHT22;4556;49.150;8.808;2022-11-28T08:43:58;6.00;99.90
9043;DHT22;4556;49.150;8.808;2022-11-28T08:46:27;3.70;99.90
9043;DHT22;4556;49.150;8.808;2022-11-28T08:48:54;5.30;99.90
9043;DHT22;4556;49.150;8.808;2022-11-28T08:51:23;6.50;99.90
9043;DHT22;4556;49.150;8.808;2022-11-28T08:53:51;3.70;99.90
9043;DHT22;4556;49.150;8.808;2022-11-28T08:56:17;6.40;99.90
9043;DHT22;4556;49.150;8.808;2022-11-28T08:58:45;5.60;99.90
9043;DHT22;4556;49.150;8.808;2022-11-28T09:01:15;4.30;99.90
9043;DHT22;4556;49.150;8.808;2022-11-28T09:03:43;3.80;99.90
9043;DHT22;4556;49.150;8.808;2022-11-28T09:06:09;3.90;99.90
9043;DHT22;4556;49.150;8.808;2022-11-28T09:08:38;5.90;99.90
9043;DHT22;4556;49.150;8.808;2022-11-28T09:11:06;4.20;99.90
9043;DHT22;4556;49.150;8.808;2022-11-28T09:13:34;3.90;99.90
9043;DHT22;4556;49.150;8.808;2022-11-28T09:16:02;3.90;99.90
9043;DHT22;4556;49.150;8.808;2022-11-28T09:18:29;4.90;99.90
9043;DHT22;4556;49.150;8.808;2022-11-28T09:20:57;6.50;99.90
9043;DHT22;4556;49.150;8.808;2022-11-28T09:23:24;3.90;99.90
9043;DHT22;4556;49.150;8.808;2022-11-28T09:25:52;4.00;99.90
9043;DHT22;4556;49.150;8.808;2022-11-28T09:28:20;4.10;99.90
9043;DHT22;4556;49.150;8.808;2022-11-28T09:30:47;4.10;99.90
9043;DHT22;4556;49.150;8.808;2022-11-28T09:33:14;4.20;99.90
9043;DHT22;4556;49.150;8.808;2022-11-28T09:35:41;4.40;99.90
9043;DHT22;4556;49.150;8.808;2022-11-28T09:38:08;5.20;99.90
9043;DHT22;4556;49.150;8.808;2022-11-28T09:40:37;4.30;99.90
9043;DHT22;4556;49.150;8.808;2022-11-28T09:43:12;4.30;99.90
9043;DHT22;4556;49.150;8.808;2022-11-28T09:45:41;4.40;99.90
9043;DHT22;4556;49.150;8.808;2022-11-28T09:48:21;5.00;99.90
9043;DHT22;4556;49.150;8.808;2022-11-28T09:50:50;4.40;99.90
9043;DHT22;4556;49.150;8.808;2022-11-28T09:53:23;4.60;99.90
9043;DHT22;4556;49.150;8.808;2022-11-28T09:55:54;4.40;99.90
9043;DHT22;4556;49.150;8.808;2022-11-28T09:58:29;6.10;99.90
9043;DHT22;4556;49.150;8.808;2022-11-28T10:01:05;6.20;99.90
9043;DHT22;4556;49.150;8.808;2022-11-28T10:03:38;4.60;99.90
9043;DHT22;4556;49.150;8.808;2022-11-28T10:06:14;7.20;99.90
9043;DHT22;4556;49.150;8.808;2022-11-28T10:08:53;5.70;99.90
9043;DHT22;4556;49.150;8.808;2022-11-28T10:11:32;4.60;99.90
9043;DHT22;4556;49.150;8.808;2022-11-28T10:14:11;6.30;99.90
9043;DHT22;4556;49.150;8.808;2022-11-28T10:16:50;4.80;99.90
9043;DHT22;4556;49.150;8.808;2022-11-28T10:19:27;5.90;99.90
9043;DHT22;4556;49.150;8.808;2022-11-28T10:21:58;4.90;99.90
9043;DHT22;4556;49.150;8.808;2022-11-28T10:24:33;4.80;99.90
9043;DHT22;4556;49.150;8.808;2022-11-28T10:27:03;5.00;99.90
9043;DHT22;4556;49.150;8.808;2022-11-28T10:29:37;5.10;99.90
9043;DHT22;4556;49.150;8.808;2022-11-28T10:32:12;6.60;99.90
9043;DHT22;4556;49.150;8.808;2022-11-28T10:34:43;5.10;99.90
9043;DHT22;4556;49.150;8.808;2022-11-28T10:37:18;6.00;99.90
9043;DHT22;4556;49.150;8.808;2022-11-28T10:39:46;6.90;99.90
9043;DHT22;4556;49.150;8.808;2022-11-28T10:42:17;5.60;99.90
9043;DHT22;4556;49.150;8.808;2022-11-28T10:45:05;5.50;99.90
9043;DHT22;4556;49.150;8.808;2022-11-28T10:47:53;5.50;99.90
9043;DHT22;4556;49.150;8.808;2022-11-28T10:50:30;5.40;99.90
9043;DHT22;4556;49.150;8.808;2022-11-28T10:53:01;5.50;99.90
9043;DHT22;4556;49.150;8.808;2022-11-28T10:55:39;5.50;99.90
9043;DHT22;4556;49.150;8.808;2022-11-28T10:58:15;6.30;99.90
9043;DHT22;4556;49.150;8.808;2022-11-28T11:00:47;5.70;99.90
9043;DHT22;4556;49.150;8.808;2022-11-28T11:03:25;5.70;99.90
9043;DHT22;4556;49.150;8.808;2022-11-28T11:05:52;5.80;99.90
9043;DHT22;4556;49.150;8.808;2022-11-28T11:08:21;6.50;99.90
9043;DHT22;4556;49.150;8.808;2022-11-28T11:10:50;5.80;99.90
9043;DHT22;4556;49.150;8.808;2022-11-28T11:13:19;5.80;99.90
9043;DHT22;4556;49.150;8.808;2022-11-28T11:15:49;5.80;99.90
9043;DHT22;4556;49.150;8.808;2022-11-28T11:18:24;6.70;99.90
9043;DHT22;4556;49.150;8.808;2022-11-28T11:21:08;6.10;99.90
9043;DHT22;4556;49.150;8.808;2022-11-28T11:23:35;6.10;99.90
9043;DHT22;4556;49.150;8.808;2022-11-28T11:26:04;7.90;99.90
9043;DHT22;4556;49.150;8.808;2022-11-28T11:28:42;6.10;99.90
9043;DHT22;4556;49.150;8.808;2022-11-28T11:31:25;6.00;99.90
9043;DHT22;4556;49.150;8.808;2022-11-28T11:34:00;6.10;99.90
9043;DHT22;4556;49.150;8.808;2022-11-28T11:36:29;6.00;99.90
9043;DHT22;4556;49.150;8.808;2022-11-28T11:39:17;6.10;99.90
9043;DHT22;4556;49.150;8.808;2022-11-28T11:41:46;6.00;99.90
9043;DHT22;4556;49.150;8.808;2022-11-28T11:44:26;6.50;99.90
9043;DHT22;4556;49.150;8.808;2022-11-28T11:46:56;6.00;99.90
9043;DHT22;4556;49.150;8.808;2022-11-28T11:49:29;7.40;99.90
9043;DHT22;4556;49.150;8.808;2022-11-28T11:51:58;6.00;99.90
9043;DHT22;4556;49.150;8.808;2022-11-28T11:54:26;5.90;99.90
9043;DHT22;4556;49.150;8.808;2022-11-28T11:56:54;8.40;99.90
9043;DHT22;4556;49.150;8.808;2022-11-28T11:59:26;6.70;99.90
9043;DHT22;4556;49.150;8.808;2022-11-28T12:01:59;6.10;99.90
9043;DHT22;4556;49.150;8.808;2022-11-28T12:04:30;6.10;99.90
9043;DHT22;4556;49.150;8.808;2022-11-28T12:07:01;6.40;99.90
9043;DHT22;4556;49.150;8.808;2022-11-28T12:09:33;6.20;99.90
9043;DHT22;4556;49.150;8.808;2022-11-28T12:12:06;6.10;99.90
9043;DHT22;4556;49.150;8.808;2022-11-28T12:14:35;6.10;99.90
9043;DHT22;4556;49.150;8.808;2022-11-28T12:17:15;7.50;99.90
9043;DHT22;4556;49.150;8.808;2022-11-28T12:19:53;9.00;99.90
9043;DHT22;4556;49.150;8.808;2022-11-28T12:22:33;8.40;99.90
9043;DHT22;4556;49.150;8.808;2022-11-28T12:25:11;6.60;99.90
9043;DHT22;4556;49.150;8.808;2022-11-28T12:27:51;6.60;99.90
9043;DHT22;4556;49.150;8.808;2022-11-28T12:30:34;6.60;99.90
9043;DHT22;4556;49.150;8.808;2022-11-28T12:33:23;6.60;99.90
9043;DHT22;4556;49.150;8.808;2022-11-28T12:36:03;7.30;99.90
9043;DHT22;4556;49.150;8.808;2022-11-28T12:38:42;8.10;99.90
9043;DHT22;4556;49.150;8.808;2022-11-28T12:41:28;6.70;99.90
9043;DHT22;4556;49.150;8.808;2022-11-28T12:44:02;6.70;99.90
9043;DHT22;4556;49.150;8.808;2022-11-28T12:46:41;6.70;99.90
9043;DHT22;4556;49.150;8.808;2022-11-28T12:49:16;7.40;99.90
9043;DHT22;4556;49.150;8.808;2022-11-28T12:51:56;6.80;99.90
9043;DHT22;4556;49.150;8.808;2022-11-28T12:54:49;6.90;99.90
9043;DHT22;4556;49.150;8.808;2022-11-28T12:57:24;6.90;99.90
9043;DHT22;4556;49.150;8.808;2022-11-28T12:59:58;6.80;99.90
9043;DHT22;4556;49.150;8.808;2022-11-28T13:02:34;6.90;99.90
9043;DHT22;4556;49.150;8.808;2022-11-28T13:05:31;8.60;99.90
9043;DHT22;4556;49.150;8.808;2022-11-28T13:08:28;6.90;99.90
9043;DHT22;4556;49.150;8.808;2022-11-28T13:11:08;6.80;99.90
9043;DHT22;4556;49.150;8.808;2022-11-28T13:13:40;6.80;99.90
9043;DHT22;4556;49.150;8.808;2022-11-28T13:16:14;9.40;99.90
9043;DHT22;4556;49.150;8.808;2022-11-28T13:18:44;6.80;99.90
9043;DHT22;4556;49.150;8.808;2022-11-28T13:21:21;6.90;99.90
9043;DHT22;4556;49.150;8.808;2022-11-28T13:23:57;6.90;99.90
9043;DHT22;4556;49.150;8.808;2022-11-28T13:26:36;8.10;99.90
9043;DHT22;4556;49.150;8.808;2022-11-28T13:29:18;8.60;99.90
9043;DHT22;4556;49.150;8.808;2022-11-28T13:31:49;6.90;99.90
9043;DHT22;4556;49.150;8.808;2022-11-28T13:34:20;9.70;99.90
9043;DHT22;4556;49.150;8.808;2022-11-28T13:36:51;8.80;99.90
9043;DHT22;4556;49.150;8.808;2022-11-28T13:39:28;6.90;99.90
9043;DHT22;4556;49.150;8.808;2022-11-28T13:42:15;7.20;99.90
9043;DHT22;4556;49.150;8.808;2022-11-28T13:44:52;7.00;99.90
9043;DHT22;4556;49.150;8.808;2022-11-28T13:47:27;8.10;99.90
9043;DHT22;4556;49.150;8.808;2022-11-28T13:52:59;7.10;99.90
9043;DHT22;4556;49.150;8.808;2022-11-28T13:55:37;7.60;99.90
9043;DHT22;4556;49.150;8.808;2022-11-28T13:58:14;7.10;99.90
9043;DHT22;4556;49.150;8.808;2022-11-28T14:00:42;7.20;99.90
9043;DHT22;4556;49.150;8.808;2022-11-28T14:03:23;7.20;99.90
9043;DHT22;4556;49.150;8.808;2022-11-28T14:05:53;7.60;99.90
9043;DHT22;4556;49.150;8.808;2022-11-28T14:08:28;8.10;99.90
9043;DHT22;4556;49.150;8.808;2022-11-28T14:11:12;7.10;99.90
9043;DHT22;4556;49.150;8.808;2022-11-28T14:13:56;8.10;99.90
9043;DHT22;4556;49.150;8.808;2022-11-28T14:16:37;7.10;99.90
9043;DHT22;4556;49.150;8.808;2022-11-28T14:19:26;7.20;99.90
9043;DHT22;4556;49.150;8.808;2022-11-28T14:22:05;7.50;99.90
9043;DHT22;4556;49.150;8.808;2022-11-28T14:24:52;7.20;99.90
9043;DHT22;4556;49.150;8.808;2022-11-28T14:27:21;7.20;99.90
9043;DHT22;4556;49.150;8.808;2022-11-28T14:30:19;7.20;99.90
9043;DHT22;4556;49.150;8.808;2022-11-28T14:32:55;7.10;99.90
9043;DHT22;4556;49.150;8.808;2022-11-28T14:38:42;8.30;99.90
9043;DHT22;4556;49.150;8.808;2022-11-28T14:41:11;7.10;99.90
9043;DHT22;4556;49.150;8.808;2022-11-28T14:43:41;7.10;99.90
9043;DHT22;4556;49.150;8.808;2022-11-28T14:46:24;9.60;99.90
9043;DHT22;4556;49.150;8.808;2022-11-28T14:49:16;7.10;99.90
9043;DHT22;4556;49.150;8.808;2022-11-28T14:54:48;7.10;99.90
9043;DHT22;4556;49.150;8.808;2022-11-28T14:57:18;7.10;99.90
9043;DHT22;4556;49.150;8.808;2022-11-28T14:59:48;7.10;99.90
9043;DHT22;4556;49.150;8.808;2022-11-28T15:02:25;7.40;99.90
9043;DHT22;4556;49.150;8.808;2022-11-28T15:05:08;7.00;99.90
9043;DHT22;4556;49.150;8.808;2022-11-28T15:07:50;9.50;99.90
9043;DHT22;4556;49.150;8.808;2022-11-28T15:10:25;8.50;99.90
9043;DHT22;4556;49.150;8.808;2022-11-28T15:13:02;7.20;99.90
9043;DHT22;4556;49.150;8.808;2022-11-28T15:15:31;7.00;99.90
9043;DHT22;4556;49.150;8.808;2022-11-28T15:17:59;7.10;99.90
9043;DHT22;4556;49.150;8.808;2022-11-28T15:20:30;7.00;99.90
9043;DHT22;4556;49.150;8.808;2022-11-28T15:22:58;7.00;99.90
9043;DHT22;4556;49.150;8.808;2022-11-28T15:25:27;8.60;99.90
9043;DHT22;4556;49.150;8.808;2022-11-28T15:28:12;7.00;99.90
9043;DHT22;4556;49.150;8.808;2022-11-28T15:30:44;6.90;99.90
9043;DHT22;4556;49.150;8.808;2022-11-28T15:33:12;6.90;99.90
9043;DHT22;4556;49.150;8.808;2022-11-28T15:35:43;7.00;99.90
9043;DHT22;4556;49.150;8.808;2022-11-28T15:38:18;6.90;99.90
9043;DHT22;4556;49.150;8.808;2022-11-28T15:40:49;6.80;99.90
9043;DHT22;4556;49.150;8.808;2022-11-28T15:43:18;7.00;99.90
9043;DHT22;4556;49.150;8.808;2022-11-28T15:45:47;6.60;99.90
9043;DHT22;4556;49.150;8.808;2022-11-28T15:48:32;6.70;99.90
9043;DHT22;4556;49.150;8.808;2022-11-28T15:51:00;6.70;99.90
9043;DHT22;4556;49.150;8.808;2022-11-28T15:53:27;6.70;99.90
9043;DHT22;4556;49.150;8.808;2022-11-28T15:56:07;7.50;99.90
9043;DHT22;4556;49.150;8.808;2022-11-28T15:58:36;7.80;99.90
9043;DHT22;4556;49.150;8.808;2022-11-28T16:01:08;6.80;99.90
9043;DHT22;4556;49.150;8.808;2022-11-28T16:03:44;6.80;99.90
9043;DHT22;4556;49.150;8.808;2022-11-28T16:06:13;6.80;99.90
9043;DHT22;4556;49.150;8.808;2022-11-28T16:08:48;6.70;99.90
9043;DHT22;4556;49.150;8.808;2022-11-28T16:11:17;6.60;99.90
9043;DHT22;4556;49.150;8.808;2022-11-28T16:13:47;6.60;99.90
9043;DHT22;4556;49.150;8.808;2022-11-28T16:16:17;6.60;99.90
9043;DHT22;4556;49.150;8.808;2022-11-28T16:18:49;7.60;99.90
9043;DHT22;4556;49.150;8.808;2022-11-28T16:21:23;6.50;99.90
9043;DHT22;4556;49.150;8.808;2022-11-28T16:23:50;8.70;99.90
9043;DHT22;4556;49.150;8.808;2022-11-28T16:26:20;6.50;99.90
9043;DHT22;4556;49.150;8.808;2022-11-28T16:28:59;6.50;99.90
9043;DHT22;4556;49.150;8.808;2022-11-28T16:31:27;7.00;99.90
9043;DHT22;4556;49.150;8.808;2022-11-28T16:33:55;6.30;99.90
9043;DHT22;4556;49.150;8.808;2022-11-28T16:36:24;6.30;99.90
9043;DHT22;4556;49.150;8.808;2022-11-28T16:38:58;8.80;99.90
9043;DHT22;4556;49.150;8.808;2022-11-28T16:41:29;6.30;99.90
9043;DHT22;4556;49.150;8.808;2022-11-28T16:44:00;7.70;99.90
9043;DHT22;4556;49.150;8.808;2022-11-28T16:46:31;7.40;99.90
9043;DHT22;4556;49.150;8.808;2022-11-28T16:48:59;8.00;99.90
9043;DHT22;4556;49.150;8.808;2022-11-28T16:51:35;6.50;99.90
9043;DHT22;4556;49.150;8.808;2022-11-28T16:54:22;6.60;99.90
9043;DHT22;4556;49.150;8.808;2022-11-28T16:56:55;6.60;99.90
9043;DHT22;4556;49.150;8.808;2022-11-28T16:59:24;6.50;99.90